Time;durP1;ratioP1;P1;durP2;ratioP2;P2;SDS_P1;SDS_P2;PMS_P1;PMS_P2;Temp;Humidity;BMP_temperature;BMP_pressure;BME280_temperature;BME280_humidity;BME280_pressure;Samples;Min_cycle;Max_cycle;Signal;HPM_P1;HPM_P2
2022/03/13 00:01:01;;;;;;;6.57;5.53;;;;;;;5.10;56.77;96492.22;5042228;28;20547;-54
2022/03/13 00:03:28;;;;;;;6.83;6.13;;;;;;;5.07;57.20;96482.78;5043272;28;20332;-54
2022/03/13 00:05:54;;;;;;;7.33;6.37;;;;;;;5.05;57.34;96491.72;5046329;28;20199;-53
2022/03/13 00:08:28;;;;;;;7.13;6.27;;;;;;;5.03;57.04;96497.91;5051260;28;20203;-54
2022/03/13 00:11:00;;;;;;;6.70;6.00;;;;;;;4.99;57.14;96493.81;5046050;28;20217;-54
2022/03/13 00:13:29;;;;;;;6.37;5.77;;;;;;;4.96;57.17;96494.06;5043995;28;20505;-52
2022/03/13 00:15:57;;;;;;;6.40;5.07;;;;;;;4.93;56.99;96493.44;5042531;28;20289;-53
2022/03/13 00:18:24;;;;;;;5.30;4.80;;;;;;;4.87;56.56;96502.59;5043295;28;20227;-53
2022/03/13 00:20:51;;;;;;;6.73;5.33;;;;;;;4.83;56.96;96495.91;5043920;28;20208;-53
2022/03/13 00:23:19;;;;;;;6.50;5.90;;;;;;;4.84;57.32;96491.50;5043218;28;20285;-54
2022/03/13 00:25:47;;;;;;;9.67;7.23;;;;;;;4.79;58.11;96493.63;5043713;28;20207;-53
2022/03/13 00:28:14;;;;;;;7.83;6.40;;;;;;;4.78;58.15;96495.41;5043813;28;20207;-54
2022/03/13 00:30:42;;;;;;;7.27;6.53;;;;;;;4.78;57.76;96495.41;5045077;28;20214;-54
2022/03/13 00:33:09;;;;;;;7.03;6.07;;;;;;;4.75;57.89;96503.47;5043356;28;20514;-54
2022/03/13 00:35:38;;;;;;;7.47;6.20;;;;;;;4.71;58.02;96496.78;5044408;28;20214;-53
2022/03/13 00:38:06;;;;;;;5.40;4.90;;;;;;;4.75;56.99;96503.47;5043900;28;20227;-53
2022/03/13 00:40:35;;;;;;;6.60;5.90;;;;;;;4.69;57.22;96496.06;5043711;28;20202;-53
2022/03/13 00:43:04;;;;;;;5.23;4.67;;;;;;;4.72;57.10;96501.09;5043387;28;20207;-54
2022/03/13 00:45:34;;;;;;;5.10;4.60;;;;;;;4.67;56.70;96494.53;5042304;28;20199;-52
2022/03/13 00:48:02;;;;;;;4.33;3.70;;;;;;;4.63;56.59;96496.53;5043544;28;20268;-53
2022/03/13 00:50:29;;;;;;;4.27;3.73;;;;;;;4.62;56.36;96499.25;5043190;28;20294;-53
2022/03/13 00:52:57;;;;;;;4.30;3.90;;;;;;;4.59;56.37;96502.09;5042755;28;20211;-53
2022/03/13 00:55:23;;;;;;;4.20;3.70;;;;;;;4.54;56.55;96505.03;5043363;28;20252;-52
2022/03/13 00:57:50;;;;;;;3.90;3.53;;;;;;;4.48;56.87;96505.47;5042666;28;20246;-52
2022/03/13 01:00:17;;;;;;;3.90;3.60;;;;;;;4.44;57.08;96498.78;5043321;28;21176;-54
2022/03/13 01:02:45;;;;;;;4.03;3.63;;;;;;;4.35;57.39;96499.44;5043762;28;20210;-52
2022/03/13 01:05:12;;;;;;;5.57;3.87;;;;;;;4.37;57.27;96493.13;5044027;28;20211;-55
2022/03/13 01:07:39;;;;;;;5.03;4.10;;;;;;;4.35;57.35;96502.06;5041466;28;20772;-53
2022/03/13 01:10:07;;;;;;;5.13;4.03;;;;;;;4.32;57.24;96497.03;5042628;28;20627;-53
2022/03/13 01:12:38;;;;;;;5.17;4.77;;;;;;;4.32;57.38;96502.28;5043220;28;20203;-52
2022/03/13 01:15:06;;;;;;;4.87;4.37;;;;;;;4.28;58.11;96503.44;5042797;28;20195;-52
2022/03/13 01:17:40;;;;;;;4.50;4.10;;;;;;;4.30;57.81;96506.78;5043223;28;20234;-52
2022/03/13 01:20:18;;;;;;;7.53;4.43;;;;;;;4.28;57.75;96499.03;5043023;28;20266;-52
2022/03/13 01:22:45;;;;;;;7.73;4.87;;;;;;;4.25;58.05;96498.41;5042951;28;20207;-52
2022/03/13 01:25:13;;;;;;;5.33;4.83;;;;;;;4.19;58.04;96489.19;5042523;28;20260;-53
2022/03/13 01:27:43;;;;;;;4.87;4.47;;;;;;;4.17;57.90;96490.25;5042958;28;20215;-52
2022/03/13 01:30:13;;;;;;;5.53;4.70;;;;;;;4.13;58.41;96483.56;5042012;28;20211;-54
2022/03/13 01:32:40;;;;;;;6.73;4.93;;;;;;;4.16;58.37;96491.19;5044482;28;20269;-56
2022/03/13 01:35:09;;;;;;;6.23;4.57;;;;;;;4.16;58.62;96489.44;5070600;28;20230;-52
2022/03/13 01:37:40;;;;;;;6.27;4.80;;;;;;;4.12;58.67;96489.75;5067932;28;20270;-53
2022/03/13 01:40:09;;;;;;;5.00;4.53;;;;;;;4.11;58.85;96483.66;5059440;28;20209;-53
2022/03/13 01:42:36;;;;;;;5.70;4.30;;;;;;;4.11;58.62;96485.47;5043605;28;20200;-54
2022/03/13 01:45:03;;;;;;;5.60;4.43;;;;;;;4.08;58.52;96490.88;5041931;28;20208;-54
2022/03/13 01:47:31;;;;;;;4.60;4.20;;;;;;;4.07;58.75;96499.72;5042135;28;20262;-53
2022/03/13 01:49:59;;;;;;;6.00;4.30;;;;;;;4.01;59.09;96488.72;5041896;28;20206;-52
2022/03/13 01:52:29;;;;;;;5.23;4.73;;;;;;;4.01;59.11;96490.47;5041579;28;20579;-53
2022/03/13 01:54:59;;;;;;;4.83;4.33;;;;;;;3.96;59.22;96487.38;5042433;28;20221;-53
2022/03/13 01:57:27;;;;;;;5.07;4.57;;;;;;;3.89;59.52;96489.59;5041599;28;20211;-52
2022/03/13 01:59:55;;;;;;;7.10;5.00;;;;;;;3.91;59.69;96484.22;5042500;28;20246;-53
2022/03/13 02:02:23;;;;;;;7.07;6.10;;;;;;;3.83;59.81;96479.53;5041219;28;20200;-54
2022/03/13 02:04:52;;;;;;;5.33;4.83;;;;;;;3.84;59.76;96489.06;5041819;28;20305;-54
2022/03/13 02:07:20;;;;;;;6.07;5.33;;;;;;;3.81;60.15;96484.03;5065206;28;20179;-54
2022/03/13 02:09:48;;;;;;;5.70;5.00;;;;;;;3.81;60.08;96484.03;5071613;28;20221;-56
2022/03/13 02:12:18;;;;;;;5.13;4.63;;;;;;;3.81;60.29;96481.41;5073924;28;20195;-54
2022/03/13 02:14:45;;;;;;;6.03;4.63;;;;;;;3.83;60.41;96491.75;5052599;28;20286;-52
2022/03/13 02:17:12;;;;;;;5.20;4.70;;;;;;;3.80;60.68;96490.19;5042337;28;20222;-55
2022/03/13 02:19:39;;;;;;;6.37;5.30;;;;;;;3.82;60.77;96495.34;5040661;28;20227;-54
2022/03/13 02:22:07;;;;;;;6.03;5.00;;;;;;;3.87;60.36;96493.22;5043209;28;20198;-53
2022/03/13 02:24:35;;;;;;;5.07;4.53;;;;;;;3.80;60.34;96492.81;5043607;28;20215;-54
2022/03/13 02:27:05;;;;;;;7.50;4.70;;;;;;;3.77;60.66;96485.19;5049199;28;20221;-54
2022/03/13 02:29:32;;;;;;;5.30;4.80;;;;;;;3.67;61.97;96492.00;5050333;28;21214;-54
2022/03/13 02:32:01;;;;;;;6.10;5.17;;;;;;;3.42;62.39;96494.59;5047203;28;20209;-54
2022/03/13 02:34:28;;;;;;;5.57;5.03;;;;;;;3.46;62.84;96496.06;5058191;28;20328;-53
2022/03/13 02:36:57;;;;;;;5.90;5.30;;;;;;;3.53;62.22;96486.03;5049662;28;20582;-53
2022/03/13 02:39:25;;;;;;;5.70;5.10;;;;;;;3.48;62.06;96487.16;5049745;28;20238;-54
2022/03/13 02:41:53;;;;;;;6.00;5.40;;;;;;;3.43;62.70;96489.28;5050887;28;20206;-53
2022/03/13 02:44:20;;;;;;;6.13;5.50;;;;;;;3.47;62.76;96482.06;5047671;28;20210;-55
2022/03/13 02:46:58;;;;;;;7.07;5.57;;;;;;;3.54;62.35;96485.09;5047638;28;20217;-53
2022/03/13 02:49:26;;;;;;;6.67;5.70;;;;;;;3.45;62.68;96476.91;5048734;28;20213;-53
2022/03/13 02:51:56;;;;;;;7.03;5.87;;;;;;;3.39;62.71;96486.97;5053532;28;20213;-55
2022/03/13 02:54:23;;;;;;;6.10;5.50;;;;;;;3.40;62.27;96488.63;5061631;28;20239;-54
2022/03/13 02:56:50;;;;;;;5.97;5.43;;;;;;;3.30;63.75;96487.56;5066370;28;20193;-54
2022/03/13 02:59:18;;;;;;;5.87;5.30;;;;;;;3.25;64.83;96484.44;5056063;28;20242;-56
2022/03/13 03:01:45;;;;;;;6.37;5.77;;;;;;;3.12;64.89;96487.00;5041733;28;20203;-54
2022/03/13 03:04:12;;;;;;;6.50;5.57;;;;;;;3.16;64.43;96491.09;5041018;28;20210;-54
2022/03/13 03:06:40;;;;;;;5.60;4.90;;;;;;;3.12;64.24;96489.63;5040503;28;20601;-53
2022/03/13 03:09:07;;;;;;;6.77;6.07;;;;;;;3.04;64.22;96499.75;5041921;28;20212;-53
2022/03/13 03:11:34;;;;;;;6.07;5.47;;;;;;;3.04;65.00;96491.91;5041218;28;20208;-53
2022/03/13 03:14:01;;;;;;;6.13;5.30;;;;;;;3.10;64.20;96490.66;5041604;28;20541;-52
2022/03/13 03:16:32;;;;;;;5.67;5.03;;;;;;;3.12;64.51;96483.59;5041152;28;20639;-51
2022/03/13 03:18:59;;;;;;;5.83;4.77;;;;;;;3.13;64.29;96490.47;5040428;28;20220;-53
2022/03/13 03:21:26;;;;;;;5.87;5.27;;;;;;;3.16;64.42;96496.31;5042326;28;20201;-53
2022/03/13 03:23:55;;;;;;;6.57;5.53;;;;;;;3.17;63.90;96489.31;5041292;28;20228;-54
2022/03/13 03:26:21;;;;;;;6.80;5.73;;;;;;;3.14;65.01;96492.97;5041047;28;20297;-54
2022/03/13 03:28:50;;;;;;;6.63;5.93;;;;;;;3.12;64.64;96484.41;5041472;28;20206;-53
2022/03/13 03:31:17;;;;;;;6.10;5.50;;;;;;;3.15;64.35;96486.00;5041513;28;20290;-55
2022/03/13 03:33:46;;;;;;;7.87;5.90;;;;;;;3.13;64.72;96482.63;5041575;28;20221;-54
2022/03/13 03:36:16;;;;;;;5.90;5.30;;;;;;;3.14;64.89;96492.13;5042226;28;20519;-53
2022/03/13 03:38:43;;;;;;;7.23;6.40;;;;;;;3.12;65.06;96496.66;5044828;28;20580;-53
2022/03/13 03:41:11;;;;;;;7.63;6.57;;;;;;;3.14;65.79;96498.22;5044444;28;20784;-52
2022/03/13 03:43:37;;;;;;;6.57;5.87;;;;;;;3.07;66.22;96491.72;5044724;28;20205;-54
2022/03/13 03:46:04;;;;;;;6.93;6.23;;;;;;;3.09;65.53;96499.44;5044027;28;20221;-53
2022/03/13 03:48:32;;;;;;;7.27;6.37;;;;;;;3.11;65.13;96497.56;5045316;28;20205;-52
2022/03/13 03:51:00;;;;;;;9.00;7.00;;;;;;;3.04;66.31;96497.16;5058136;28;20196;-54
2022/03/13 03:53:27;;;;;;;7.10;6.37;;;;;;;3.08;66.04;96510.84;5064897;28;20212;-55
2022/03/13 03:55:54;;;;;;;9.53;7.27;;;;;;;3.00;65.97;96499.13;5065178;28;20198;-55
2022/03/13 03:58:22;;;;;;;8.47;7.07;;;;;;;2.99;65.69;96505.28;5065148;28;20218;-54
2022/03/13 04:00:50;;;;;;;8.33;6.63;;;;;;;2.94;66.22;96509.94;5065458;28;20222;-55
2022/03/13 04:03:17;;;;;;;8.20;6.97;;;;;;;2.94;66.25;96507.34;5065564;28;20197;-53
2022/03/13 04:05:43;;;;;;;8.37;6.33;;;;;;;2.84;66.32;96501.03;5044210;28;20220;-54
2022/03/13 04:08:12;;;;;;;8.20;6.83;;;;;;;2.89;66.64;96505.97;5043617;28;20288;-53
2022/03/13 04:10:39;;;;;;;7.80;6.60;;;;;;;2.89;66.75;96500.75;5044234;28;20664;-54
2022/03/13 04:13:05;;;;;;;9.97;6.60;;;;;;;2.93;66.39;96500.47;5044404;28;20296;-53
2022/03/13 04:15:32;;;;;;;8.67;6.37;;;;;;;2.93;66.67;96500.47;5042887;28;20216;-54
2022/03/13 04:17:59;;;;;;;7.20;6.50;;;;;;;2.88;67.21;96497.28;5043722;28;20204;-53
2022/03/13 04:20:26;;;;;;;9.57;7.50;;;;;;;2.87;66.67;96495.63;5042910;28;20234;-52
2022/03/13 04:22:57;;;;;;;8.50;7.50;;;;;;;2.81;67.50;96496.03;5043802;28;20214;-53
2022/03/13 04:25:33;;;;;;;9.03;7.00;;;;;;;2.78;67.88;96501.44;5041651;28;20207;-53
2022/03/13 04:28:00;;;;;;;7.60;6.80;;;;;;;2.81;67.40;96500.41;5043537;28;20208;-53
2022/03/13 04:30:31;;;;;;;9.43;7.30;;;;;;;2.81;67.56;96506.47;5043331;28;20214;-57
2022/03/13 04:33:00;;;;;;;8.00;7.20;;;;;;;2.80;68.19;96510.00;5043622;28;20294;-53
2022/03/13 04:35:27;;;;;;;8.73;7.17;;;;;;;2.82;68.05;96500.31;5042930;28;20210;-54
2022/03/13 04:37:55;;;;;;;10.60;8.10;;;;;;;2.73;68.48;96498.28;5042937;28;20654;-54
2022/03/13 04:40:22;;;;;;;11.27;10.03;;;;;;;2.74;68.98;96506.97;5043101;28;20233;-54
2022/03/13 04:42:50;;;;;;;11.97;9.40;;;;;;;2.83;68.37;96509.84;5042818;28;20213;-53
2022/03/13 04:45:18;;;;;;;9.57;8.57;;;;;;;2.77;68.91;96504.16;5042711;28;20212;-52
2022/03/13 04:47:47;;;;;;;10.27;8.63;;;;;;;2.77;68.69;96505.00;5042541;28;20263;-53
2022/03/13 04:50:14;;;;;;;9.90;8.50;;;;;;;2.80;68.67;96512.63;5044172;28;20202;-55
2022/03/13 04:52:40;;;;;;;11.13;9.53;;;;;;;2.76;69.22;96511.16;5044137;28;20196;-55
2022/03/13 04:55:07;;;;;;;11.07;9.00;;;;;;;2.72;69.87;96511.44;5043512;28;20196;-53
2022/03/13 04:57:34;;;;;;;13.50;9.17;;;;;;;2.76;69.60;96512.94;5042943;28;20610;-54
2022/03/13 05:00:03;;;;;;;14.60;10.00;;;;;;;2.69;70.20;96512.50;5044715;28;20237;-54
2022/03/13 05:02:29;;;;;;;12.33;9.67;;;;;;;2.72;69.60;96511.44;5043759;28;20226;-54
2022/03/13 05:04:59;;;;;;;12.10;9.17;;;;;;;2.74;69.39;96509.56;5043812;28;20251;-54
2022/03/13 05:07:28;;;;;;;13.17;9.70;;;;;;;2.58;70.99;96509.72;5042433;28;20630;-55
2022/03/13 05:09:55;;;;;;;11.97;9.53;;;;;;;2.66;69.83;96522.28;5043340;28;20478;-55
2022/03/13 05:12:26;;;;;;;13.20;10.70;;;;;;;2.50;71.03;96520.66;5043028;28;20212;-54
2022/03/13 05:14:53;;;;;;;10.53;9.33;;;;;;;2.62;70.45;96521.66;5042343;28;20202;-54
2022/03/13 05:17:21;;;;;;;10.90;9.53;;;;;;;2.62;70.05;96520.81;5043307;28;20268;-56
2022/03/13 05:19:47;;;;;;;16.83;9.07;;;;;;;2.59;69.92;96523.63;5042338;28;20576;-56
2022/03/13 05:22:14;;;;;;;11.53;9.67;;;;;;;2.48;70.44;96530.34;5041886;28;20571;-55
2022/03/13 05:24:40;;;;;;;12.87;9.90;;;;;;;2.47;71.87;96533.06;5042258;28;20211;-56
2022/03/13 05:27:07;;;;;;;10.93;9.47;;;;;;;2.33;72.45;96530.47;5042616;28;20222;-56
2022/03/13 05:29:35;;;;;;;10.27;9.13;;;;;;;2.35;71.55;96534.66;5041992;28;20224;-54
2022/03/13 05:32:02;;;;;;;12.53;10.10;;;;;;;2.40;71.95;96527.38;5045871;28;20207;-54
2022/03/13 05:34:34;;;;;;;15.67;10.70;;;;;;;2.40;72.03;96539.59;5069583;28;20180;-55
2022/03/13 05:37:01;;;;;;;13.67;9.80;;;;;;;2.43;71.62;96542.00;5071727;28;20200;-54
2022/03/13 05:39:27;;;;;;;13.47;10.77;;;;;;;2.51;71.51;96539.75;5051223;28;20243;-54
2022/03/13 05:41:55;;;;;;;11.77;10.07;;;;;;;2.47;72.47;96543.50;5042774;28;20559;-53
2022/03/13 05:44:23;;;;;;;13.97;10.23;;;;;;;2.40;71.20;96537.81;5041971;28;20224;-54
2022/03/13 05:46:50;;;;;;;14.23;10.10;;;;;;;2.53;71.62;96543.09;5042977;28;20202;-54
2022/03/13 05:49:17;;;;;;;12.03;10.40;;;;;;;2.39;72.39;96541.38;5043315;28;20205;-55
2022/03/13 05:51:46;;;;;;;13.30;10.63;;;;;;;2.54;71.39;96539.56;5041131;28;20202;-54
2022/03/13 05:54:12;;;;;;;12.40;10.03;;;;;;;2.53;70.91;96537.03;5043067;28;20213;-54
2022/03/13 05:56:41;;;;;;;12.00;10.03;;;;;;;2.46;72.31;96547.03;5042044;28;20210;-56
2022/03/13 05:59:10;;;;;;;13.17;10.40;;;;;;;2.50;71.59;96544.13;5040959;28;20570;-55
2022/03/13 06:01:37;;;;;;;15.33;11.23;;;;;;;2.62;71.66;96544.31;5042975;28;20610;-54
2022/03/13 06:04:03;;;;;;;12.90;10.33;;;;;;;2.73;71.04;96542.66;5042218;28;20208;-55
2022/03/13 06:06:33;;;;;;;14.67;10.93;;;;;;;2.83;71.56;96545.56;5042554;28;20214;-56
2022/03/13 06:09:01;;;;;;;12.67;10.80;;;;;;;3.13;70.56;96547.94;5041490;28;20541;-56
2022/03/13 06:11:27;;;;;;;14.23;10.93;;;;;;;3.29;70.30;96548.63;5042026;28;20206;-54
2022/03/13 06:13:54;;;;;;;12.17;10.73;;;;;;;4.01;68.88;96554.13;5042202;28;20210;-55
2022/03/13 06:16:21;;;;;;;13.97;11.57;;;;;;;4.51;65.76;96557.63;5041482;28;20249;-56
2022/03/13 06:18:48;;;;;;;13.63;10.83;;;;;;;5.40;63.07;96552.88;5042030;28;20231;-56
2022/03/13 06:21:14;;;;;;;13.17;11.00;;;;;;;5.96;59.59;96546.84;5060540;28;20222;-56
2022/03/13 06:23:41;;;;;;;11.53;10.00;;;;;;;6.06;59.34;96551.41;5065978;28;20179;-55
2022/03/13 06:26:13;;;;;;;12.60;10.60;;;;;;;6.84;56.41;96555.66;5066901;28;20176;-56
2022/03/13 06:28:40;;;;;;;14.30;10.93;;;;;;;6.78;57.14;96550.88;5047454;28;20207;-56
2022/03/13 06:31:12;;;;;;;12.97;10.90;;;;;;;6.73;56.23;96544.34;5042527;28;20535;-56
2022/03/13 06:33:40;;;;;;;12.33;10.70;;;;;;;6.56;56.83;96550.06;5042187;28;20195;-56
2022/03/13 06:36:07;;;;;;;13.90;11.40;;;;;;;6.85;57.14;96551.22;5041999;28;20218;-56
2022/03/13 06:38:35;;;;;;;14.03;11.13;;;;;;;6.82;56.49;96541.81;5039580;28;20211;-56
2022/03/13 06:41:02;;;;;;;11.93;10.73;;;;;;;6.56;58.18;96550.06;5041524;28;20289;-56
2022/03/13 06:43:30;;;;;;;13.27;11.87;;;;;;;5.89;61.05;96545.63;5041386;28;20238;-55
2022/03/13 06:45:56;;;;;;;14.40;11.40;;;;;;;5.90;61.72;96544.69;5042694;28;20200;-56
2022/03/13 06:48:23;;;;;;;12.47;11.17;;;;;;;6.50;59.51;96549.63;5043415;28;20582;-55
2022/03/13 06:50:51;;;;;;;13.17;11.77;;;;;;;6.82;58.97;96554.94;5043353;28;20211;-56
2022/03/13 06:53:20;;;;;;;14.90;12.37;;;;;;;7.39;55.79;96551.19;5043942;28;20268;-56
2022/03/13 06:55:47;;;;;;;13.23;11.83;;;;;;;7.98;54.98;96549.69;5064954;28;20195;-56
2022/03/13 06:58:15;;;;;;;13.80;12.40;;;;;;;8.09;55.01;96555.84;5072734;28;20266;-55
2022/03/13 07:00:44;;;;;;;14.17;12.67;;;;;;;7.67;54.44;96561.13;5058966;28;20231;-55
2022/03/13 07:03:11;;;;;;;13.50;12.10;;;;;;;7.40;56.52;96558.13;5041523;28;20235;-56
2022/03/13 07:05:37;;;;;;;14.63;12.90;;;;;;;7.38;55.81;96557.41;5041103;28;20212;-56
2022/03/13 07:08:04;;;;;;;15.00;13.47;;;;;;;7.26;55.48;96555.81;5041789;28;20190;-54
2022/03/13 07:10:31;;;;;;;15.90;13.57;;;;;;;7.06;54.84;96559.19;5044329;28;20203;-55
2022/03/13 07:12:59;;;;;;;14.93;12.83;;;;;;;6.91;55.77;96561.25;5044920;28;20577;-56
2022/03/13 07:15:26;;;;;;;15.07;12.80;;;;;;;6.80;56.94;96556.03;5060752;28;20216;-55
2022/03/13 07:17:55;;;;;;;15.10;13.43;;;;;;;6.50;57.12;96554.03;5069902;28;20206;-55
2022/03/13 07:20:21;;;;;;;16.90;13.23;;;;;;;6.35;58.44;96549.97;5066175;28;20227;-56
2022/03/13 07:22:48;;;;;;;16.97;13.10;;;;;;;6.56;59.29;96550.91;5044954;28;20555;-56
2022/03/13 07:25:17;;;;;;;18.60;14.57;;;;;;;6.59;58.50;96544.59;5045734;28;20218;-55
2022/03/13 07:27:45;;;;;;;18.33;14.73;;;;;;;6.54;59.05;96552.84;5045017;28;20204;-54
2022/03/13 07:30:14;;;;;;;23.13;14.70;;;;;;;6.71;57.38;96544.44;5044650;28;20199;-54
2022/03/13 07:32:41;;;;;;;18.63;14.83;;;;;;;6.73;58.70;96553.03;5045003;28;20217;-56
2022/03/13 07:35:11;;;;;;;18.07;15.23;;;;;;;6.78;56.44;96550.06;5045560;28;20199;-55
2022/03/13 07:37:38;;;;;;;19.93;15.63;;;;;;;6.80;56.93;96550.78;5045218;28;20203;-56
2022/03/13 07:40:05;;;;;;;20.00;15.97;;;;;;;6.75;57.36;96553.78;5045729;28;20308;-56
2022/03/13 07:42:31;;;;;;;20.23;16.03;;;;;;;6.71;57.57;96552.34;5051760;28;20199;-56
2022/03/13 07:45:00;;;;;;;20.83;16.40;;;;;;;6.76;56.53;96542.31;5053114;28;20625;-55
2022/03/13 07:47:30;;;;;;;18.33;15.53;;;;;;;6.77;56.63;96541.31;5051510;28;20603;-55
2022/03/13 07:49:57;;;;;;;25.33;16.93;;;;;;;6.71;55.92;96539.19;5048349;28;20203;-55
2022/03/13 07:52:29;;;;;;;19.87;16.93;;;;;;;6.87;56.41;96544.88;5051236;28;20520;-56
2022/03/13 07:55:00;;;;;;;19.57;16.50;;;;;;;6.94;55.88;96546.06;5050640;28;20230;-56
2022/03/13 07:57:28;;;;;;;19.50;15.67;;;;;;;6.90;54.98;96541.19;5046339;28;20283;-56
2022/03/13 07:59:55;;;;;;;21.20;16.63;;;;;;;7.06;55.80;96546.03;5043876;28;20245;-54
2022/03/13 08:02:22;;;;;;;17.47;15.40;;;;;;;7.16;54.97;96544.34;5044084;28;20203;-56
2022/03/13 08:04:48;;;;;;;17.33;15.03;;;;;;;7.17;54.82;96530.22;5045079;28;20530;-54
2022/03/13 08:07:15;;;;;;;20.17;16.03;;;;;;;7.18;54.63;96537.16;5044484;28;20215;-55
2022/03/13 08:09:42;;;;;;;20.10;16.57;;;;;;;7.17;54.24;96530.22;5044096;28;20211;-56
2022/03/13 08:12:09;;;;;;;20.93;16.17;;;;;;;7.25;55.36;96523.41;5044147;28;20212;-55
2022/03/13 08:14:37;;;;;;;20.17;16.60;;;;;;;7.34;54.67;96527.91;5043473;28;20211;-56
2022/03/13 08:17:05;;;;;;;18.50;15.40;;;;;;;7.46;53.77;96516.38;5043948;28;20698;-55
2022/03/13 08:19:32;;;;;;;18.83;15.73;;;;;;;7.47;53.67;96522.47;5043317;28;20222;-54
2022/03/13 08:21:58;;;;;;;20.40;15.70;;;;;;;7.54;53.30;96523.63;5043270;28;20659;-55
2022/03/13 08:24:25;;;;;;;18.23;15.17;;;;;;;7.58;53.19;96525.03;5044292;28;20199;-56
2022/03/13 08:26:53;;;;;;;17.60;15.53;;;;;;;7.66;53.58;96527.84;5043430;28;20253;-56
2022/03/13 08:29:20;;;;;;;18.90;16.40;;;;;;;7.69;52.43;96527.59;5044121;28;20207;-55
2022/03/13 08:31:46;;;;;;;18.63;15.73;;;;;;;7.81;52.91;96526.59;5044178;28;20196;-55
2022/03/13 08:34:13;;;;;;;22.50;17.10;;;;;;;7.96;53.36;96529.72;5044286;28;20208;-55
2022/03/13 08:36:43;;;;;;;20.43;16.63;;;;;;;8.08;53.18;96526.03;5043893;28;20671;-56
2022/03/13 08:39:10;;;;;;;18.53;16.10;;;;;;;8.11;52.31;96523.16;5043903;28;20223;-55
2022/03/13 08:41:37;;;;;;;18.37;15.60;;;;;;;8.20;52.66;96511.84;5042275;28;20325;-55
2022/03/13 08:44:06;;;;;;;19.80;16.17;;;;;;;8.22;51.63;96511.72;5054848;28;20214;-55
2022/03/13 08:46:32;;;;;;;19.23;16.13;;;;;;;8.27;51.65;96507.69;5066919;28;20180;-55
2022/03/13 08:48:59;;;;;;;17.83;14.97;;;;;;;8.25;51.24;96501.75;5071717;28;20187;-55
2022/03/13 08:51:29;;;;;;;18.83;15.47;;;;;;;8.35;51.19;96500.00;5054682;28;20632;-55
2022/03/13 08:53:57;;;;;;;17.13;15.23;;;;;;;8.52;51.47;96493.25;5045232;28;20222;-55
2022/03/13 08:56:25;;;;;;;17.13;15.27;;;;;;;8.64;50.60;96494.00;5045321;28;20207;-55
2022/03/13 08:58:54;;;;;;;19.73;15.97;;;;;;;8.74;49.97;96494.84;5063594;28;20200;-55
2022/03/13 09:01:24;;;;;;;17.90;14.30;;;;;;;8.88;50.81;96492.66;5066905;28;20231;-55
2022/03/13 09:03:51;;;;;;;20.37;15.80;;;;;;;8.99;49.59;96495.19;5058057;28;20261;-55
2022/03/13 09:06:17;;;;;;;17.20;15.00;;;;;;;9.11;48.89;96487.13;5043723;28;20203;-56
2022/03/13 09:08:45;;;;;;;16.73;14.30;;;;;;;9.25;48.67;96484.06;5043154;28;20212;-55
2022/03/13 09:11:12;;;;;;;16.13;14.40;;;;;;;9.42;48.20;96475.47;5043971;28;20266;-56
2022/03/13 09:13:40;;;;;;;16.43;14.30;;;;;;;9.66;47.71;96481.16;5044125;28;20294;-55
2022/03/13 09:16:09;;;;;;;17.10;14.60;;;;;;;10.02;47.30;96476.91;5044553;28;20604;-55
2022/03/13 09:18:38;;;;;;;16.63;14.20;;;;;;;10.39;45.83;96477.75;5045345;28;20216;-55
2022/03/13 09:21:05;;;;;;;15.87;14.17;;;;;;;10.76;44.11;96463.66;5044223;28;20223;-56
2022/03/13 09:23:32;;;;;;;16.43;14.07;;;;;;;11.24;43.56;96464.16;5043783;28;20204;-56
2022/03/13 09:26:00;;;;;;;15.13;13.53;;;;;;;11.69;42.04;96458.72;5042443;28;20207;-55
2022/03/13 09:28:29;;;;;;;15.93;12.73;;;;;;;12.13;42.01;96453.41;5043898;28;20199;-56
2022/03/13 09:30:56;;;;;;;15.67;13.67;;;;;;;12.59;40.68;96455.63;5044297;28;20188;-56
2022/03/13 09:33:27;;;;;;;13.50;11.97;;;;;;;12.78;39.27;96452.72;5043229;28;20239;-56
2022/03/13 09:35:55;;;;;;;13.33;11.93;;;;;;;13.18;38.23;96448.53;5044477;28;20280;-56
2022/03/13 09:38:22;;;;;;;13.00;11.60;;;;;;;13.66;37.58;96453.88;5045564;28;20285;-56
2022/03/13 09:40:48;;;;;;;14.00;11.70;;;;;;;14.01;36.49;96443.88;5043375;28;20237;-55
2022/03/13 09:43:15;;;;;;;11.53;10.43;;;;;;;14.24;34.34;96437.66;5044108;28;20214;-56
2022/03/13 09:45:41;;;;;;;11.27;10.17;;;;;;;14.27;33.40;96441.81;5044091;28;20208;-56
2022/03/13 09:48:10;;;;;;;12.43;10.60;;;;;;;14.16;34.46;96447.50;5045819;28;20624;-56
2022/03/13 09:50:40;;;;;;;11.80;10.60;;;;;;;14.48;34.42;96436.81;5047003;28;20207;-55
2022/03/13 09:53:11;;;;;;;11.93;10.77;;;;;;;14.81;34.53;96438.28;5049480;28;20215;-56
2022/03/13 09:55:38;;;;;;;12.03;10.77;;;;;;;14.98;34.33;96432.91;5048867;28;20215;-55
2022/03/13 09:58:06;;;;;;;11.33;10.17;;;;;;;15.50;33.68;96436.56;5050462;28;20199;-57
2022/03/13 10:00:33;;;;;;;10.80;9.70;;;;;;;15.67;31.32;96431.94;5048602;28;20321;-56
2022/03/13 10:03:04;;;;;;;11.33;10.00;;;;;;;16.07;31.83;96426.22;5044481;28;20214;-56
2022/03/13 10:05:43;;;;;;;11.25;9.63;;;;;;;16.35;32.27;96413.09;5045357;28;20574;-55
2022/03/13 10:08:12;;;;;;;11.38;10.23;;;;;;;16.41;30.57;96412.34;5045539;28;20207;-56
2022/03/13 10:10:43;;;;;;;10.80;9.70;;;;;;;16.80;30.48;96409.38;5042427;28;20643;-55
2022/03/13 10:13:10;;;;;;;10.32;9.23;;;;;;;16.74;29.45;96405.63;5040350;28;20200;-56
2022/03/13 10:15:41;;;;;;;11.05;9.82;;;;;;;16.72;29.57;96404.97;5041222;28;20235;-56
2022/03/13 10:18:12;;;;;;;10.80;9.73;;;;;;;17.10;29.96;96402.13;5041629;28;20203;-56
2022/03/13 10:20:41;;;;;;;11.73;10.63;;;;;;;17.04;29.05;96394.88;5042814;28;20678;-54
2022/03/13 10:23:12;;;;;;;12.52;10.77;;;;;;;17.58;30.46;96388.03;5041941;28;20668;-55
2022/03/13 10:25:41;;;;;;;11.85;10.85;;;;;;;18.20;30.17;96392.63;5042641;28;20196;-55
2022/03/13 10:28:20;;;;;;;12.35;10.95;;;;;;;17.98;30.12;96388.34;5040852;28;20196;-55
2022/03/13 10:30:49;;;;;;;11.48;10.48;;;;;;;18.21;29.55;96389.72;5042855;28;20194;-55
2022/03/13 10:33:15;;;;;;;12.57;10.48;;;;;;;18.25;29.21;96390.16;5041554;28;20203;-54
2022/03/13 10:35:42;;;;;;;11.45;10.35;;;;;;;18.42;30.26;96379.97;5041961;28;20582;-55
2022/03/13 10:38:20;;;;;;;11.15;10.02;;;;;;;18.83;30.57;96383.50;5043214;28;20207;-54
2022/03/13 10:40:49;;;;;;;10.98;9.85;;;;;;;19.30;28.46;96382.59;5042682;28;20226;-55
2022/03/13 10:43:19;;;;;;;11.55;10.48;;;;;;;19.17;26.99;96374.50;5044065;28;20242;-55
2022/03/13 10:45:51;;;;;;;10.50;9.48;;;;;;;19.26;27.65;96376.00;5051701;28;20203;-54
2022/03/13 10:48:21;;;;;;;8.00;7.20;;;;;;;19.01;26.42;96374.88;5057818;28;20217;-56
2022/03/13 10:50:50;;;;;;;7.28;6.68;;;;;;;18.99;26.14;96375.09;5061732;28;20196;-54
2022/03/13 10:53:18;;;;;;;7.65;6.78;;;;;;;19.14;25.21;96369.56;5048385;28;20272;-55
2022/03/13 10:55:45;;;;;;;7.97;7.20;;;;;;;19.19;24.75;96370.63;5045843;28;20336;-54
2022/03/13 10:58:12;;;;;;;8.93;7.88;;;;;;;19.55;24.65;96366.78;5046484;28;20215;-55
2022/03/13 11:00:38;;;;;;;9.60;8.60;;;;;;;20.27;24.94;96367.56;5045911;28;20248;-54
2022/03/13 11:03:14;;;;;;;7.88;7.18;;;;;;;20.04;23.54;96360.97;5045328;28;20206;-54
2022/03/13 11:05:41;;;;;;;6.72;6.13;;;;;;;20.31;23.77;96352.69;5052011;28;20211;-55
2022/03/13 11:08:08;;;;;;;8.48;6.13;;;;;;;20.13;23.55;96354.34;5060770;28;20215;-57
2022/03/13 11:10:37;;;;;;;8.25;6.13;;;;;;;20.59;24.03;96351.56;5062252;28;20207;-54
2022/03/13 11:13:05;;;;;;;6.60;6.10;;;;;;;20.49;22.38;96351.19;5055373;28;20207;-55
2022/03/13 11:15:35;;;;;;;6.32;5.78;;;;;;;20.29;23.07;96354.78;5047124;28;20207;-55
2022/03/13 11:18:06;;;;;;;6.57;5.90;;;;;;;20.96;22.48;96344.59;5046352;28;20269;-56
2022/03/13 11:20:35;;;;;;;6.20;5.60;;;;;;;20.93;24.50;96347.69;5045219;28;20285;-55
2022/03/13 11:23:03;;;;;;;5.55;5.15;;;;;;;21.11;22.34;96342.47;5046955;28;20210;-55
2022/03/13 11:25:30;;;;;;;5.00;4.60;;;;;;;21.80;21.30;96337.81;5045732;28;20286;-55
2022/03/13 11:27:58;;;;;;;5.60;4.85;;;;;;;21.65;20.37;96331.94;5044984;28;20514;-56
2022/03/13 11:30:33;;;;;;;5.90;5.28;;;;;;;21.06;21.87;96332.31;5045106;28;20211;-56
2022/03/13 11:33:02;;;;;;;5.90;5.30;;;;;;;21.72;22.76;96326.47;5044475;28;20226;-56
2022/03/13 11:35:31;;;;;;;4.70;4.30;;;;;;;21.76;21.57;96330.38;5045453;28;20231;-56